Axton, VA (24054)

7:54 PM EDT on July 28, 2016 (GMT -0400)
Rural Axton | | Change Station

Elev 930 ft 36.66 °N, 79.68 °W | Updated 8 seconds ago

Clear
Clear
86.4 °F
Feels Like 93 °F
N
0.0
Wind Variable Wind from South
Gusts 0.0 mph

Today
High -- | Low -- °F
--% Chance of Precip.
Yesterday
High -- | Low -- °F
Precip. -- in
Pressure 29.82 in
Visibility 10.0 miles
Clouds Clear
Heat Index 93 °F
Dew Point 73 °F
Humidity 64%
Rainfall 0.00 in
Snow Depth Not available.
6:22 AM 8:28 PM
Waning Crescent, 27% visible
METAR KSIF 282345Z AUTO 22003KT 10SM CLR 32/21 A2982 RMK AO2 T03150213
Pressure 29.82 in
Visibility 10.0 miles
Clouds Clear
Heat Index 93 °F
Dew Point 73 °F
Humidity 64%
Rainfall 0.00 in
Snow Depth Not available.
6:22 AM 8:28 PM
Waning Crescent, 27% visible
METAR KSIF 282345Z AUTO 22003KT 10SM CLR 32/21 A2982 RMK AO2 T03150213

10-Day Weather Forecast

Almanac

Astronomy

Jul. 28, 2016 Rise Set
Actual Time
Civil Twilight
Nautical Twilight
Astronomical Twilight
Moon
Length of Visible Light
Length of Day
Tomorrow will be .
, % of the Moon is Illuminated

Today's Extremes

State Highs State Lows

Community

WunderPhotos

Upload Photos

1,928,236 photos uploaded!

WunderBlog® & News

Nearby

Air Quality

  Air Quality AQ Index Pollutant
Not available.

Snow Depth

Station Depth Elevation

Earthquake Activity

City Distance Mag. Time & Date
Minimum magnitude displayed is 2.5.

Coastal Water Temperatures

Place Temperature

Stations

Nearby Weather Stations

Station Location Temp. Windchill Dew Point Humidity Wind Precip. Elev Updated Type
                   

Watches & Warnings

Severe Thunderstorm Watch
Issued: 7:43 PM EDT Jul. 28, 2016 – National Weather Service

Severe Thunderstorm Watch 419 remains in effect until 1000 PM EDT
for the following locations


VA
. Virginia counties included are

Alleghany Amherst Appomattox
Bath Bedford Bland
Botetourt Buckingham Campbell
Carroll Craig Floyd
Franklin Giles Grayson
Henry Montgomery Patrick
Pittsylvania Pulaski Roanoke
Rockbridge Smyth Tazewell
Wythe


Virginia independent cities included are

Buena Vista Covington Danville
Galax Lexington Lynchburg
Martinsville Radford Roanoke
Salem